createdAt,value
2022-11-05T00:01:15.924Z,7.70
2022-11-05T00:04:02.987Z,7.70
2022-11-05T00:06:49.950Z,7.70
2022-11-05T00:09:34.997Z,7.70
2022-11-05T00:12:31.584Z,7.70
2022-11-05T00:15:18.797Z,7.60
2022-11-05T00:17:45.891Z,7.60
2022-11-05T00:20:14.160Z,7.50
2022-11-05T00:23:01.093Z,7.50
2022-11-05T00:25:30.056Z,7.40
2022-11-05T00:28:02.288Z,7.40
2022-11-05T00:30:30.718Z,7.40
2022-11-05T00:33:02.653Z,7.40
2022-11-05T00:35:30.072Z,7.40
2022-11-05T00:37:57.061Z,7.30
2022-11-05T00:40:24.149Z,7.30
2022-11-05T00:43:11.261Z,7.30
2022-11-05T00:45:38.623Z,7.30
2022-11-05T00:48:25.984Z,7.30
2022-11-05T00:50:53.034Z,7.20
2022-11-05T00:53:20.177Z,7.30
2022-11-05T00:55:47.520Z,7.30
2022-11-05T00:58:17.297Z,7.30
2022-11-05T01:00:48.329Z,7.30
2022-11-05T01:03:16.650Z,7.30
2022-11-05T01:05:47.741Z,7.30
2022-11-05T01:08:16.396Z,7.30
2022-11-05T01:10:49.779Z,7.20
2022-11-05T01:13:19.742Z,7.20
2022-11-05T01:15:47.789Z,7.30
2022-11-05T01:18:14.913Z,7.20
2022-11-05T01:20:42.095Z,7.20
2022-11-05T01:23:13.455Z,7.20
2022-11-05T01:25:43.081Z,7.20
2022-11-05T01:28:10.507Z,7.20
2022-11-05T01:30:38.206Z,7.20
2022-11-05T01:33:05.639Z,7.20
2022-11-05T01:35:32.680Z,7.20
2022-11-05T01:37:59.729Z,7.20
2022-11-05T01:40:27.131Z,7.20
2022-11-05T01:42:54.243Z,7.20
2022-11-05T01:45:26.351Z,7.20
2022-11-05T01:48:15.927Z,7.20
2022-11-05T01:51:05.228Z,7.20
2022-11-05T01:53:56.322Z,7.10
2022-11-05T01:57:03.108Z,7.20
2022-11-05T01:59:36.854Z,7.20
2022-11-05T02:02:06.124Z,7.20
2022-11-05T02:04:54.099Z,7.20
2022-11-05T02:07:23.333Z,7.20
2022-11-05T02:10:14.621Z,7.20
2022-11-05T02:12:45.005Z,7.20
2022-11-05T02:15:14.611Z,7.10
2022-11-05T02:18:21.448Z,7.10
2022-11-05T02:21:28.386Z,7.20
2022-11-05T02:24:20.611Z,7.20
2022-11-05T02:27:17.354Z,7.20
2022-11-05T02:30:06.546Z,7.10
2022-11-05T02:33:13.424Z,7.20
2022-11-05T02:36:20.350Z,7.20
2022-11-05T02:39:07.040Z,7.20
2022-11-05T02:41:39.069Z,7.20
2022-11-05T02:44:29.519Z,7.10
2022-11-05T02:47:37.217Z,7.20
2022-11-05T02:50:34.213Z,7.20
2022-11-05T02:53:40.891Z,7.20
2022-11-05T02:56:10.022Z,7.20
2022-11-05T02:58:37.046Z,7.20
2022-11-05T03:01:07.164Z,7.20
2022-11-05T03:04:00.593Z,5.90
2022-11-05T03:06:51.287Z,7.20
2022-11-05T03:09:58.016Z,7.20
2022-11-05T03:13:07.866Z,7.20
2022-11-05T03:16:02.188Z,7.20
2022-11-05T03:18:54.698Z,7.20
2022-11-05T03:21:31.669Z,7.20
2022-11-05T03:24:06.342Z,7.20
2022-11-05T03:26:43.646Z,7.30
2022-11-05T03:29:18.166Z,7.30
2022-11-05T03:31:50.589Z,7.30
2022-11-05T03:34:23.738Z,7.30
2022-11-05T03:36:54.770Z,7.30
2022-11-05T03:39:29.206Z,7.30
2022-11-05T03:41:57.867Z,7.20
2022-11-05T03:44:30.925Z,7.20
2022-11-05T03:47:04.475Z,7.20
2022-11-05T03:49:38.711Z,7.20
2022-11-05T03:52:13.297Z,7.20
2022-11-05T03:54:40.721Z,6.30
2022-11-05T03:57:10.883Z,7.20
2022-11-05T03:59:45.005Z,7.20
2022-11-05T04:02:16.074Z,7.30
2022-11-05T04:04:43.246Z,7.20
2022-11-05T04:07:31.873Z,7.30
2022-11-05T04:10:19.502Z,7.20
2022-11-05T04:13:06.486Z,7.30
2022-11-05T04:15:53.316Z,7.30
2022-11-05T04:18:20.232Z,7.20
2022-11-05T04:21:07.183Z,7.30
2022-11-05T04:23:54.096Z,7.30
2022-11-05T04:26:23.586Z,7.30
2022-11-05T04:29:11.360Z,7.20
2022-11-05T04:31:38.847Z,7.30
2022-11-05T04:34:06.119Z,7.30
2022-11-05T04:36:33.067Z,7.30
2022-11-05T04:39:00.098Z,7.30
2022-11-05T04:41:27.157Z,7.30
2022-11-05T04:43:54.174Z,7.30
2022-11-05T04:46:21.612Z,7.40
2022-11-05T04:48:48.633Z,7.40
2022-11-05T04:51:15.623Z,7.40
2022-11-05T04:53:43.152Z,7.40
2022-11-05T04:56:17.829Z,7.40
2022-11-05T04:58:45.144Z,7.30
2022-11-05T05:01:21.040Z,7.40
2022-11-05T05:03:50.259Z,7.30
2022-11-05T05:06:18.220Z,7.40
2022-11-05T05:08:49.003Z,7.40
2022-11-05T05:11:17.977Z,6.30
2022-11-05T05:13:45.088Z,7.30
2022-11-05T05:16:30.204Z,7.30
2022-11-05T05:18:57.186Z,7.40
2022-11-05T05:21:41.042Z,7.30
2022-11-05T05:24:11.924Z,7.30
2022-11-05T05:26:43.577Z,7.30
2022-11-05T05:29:12.956Z,7.30
2022-11-05T05:31:41.513Z,7.30
2022-11-05T05:34:11.146Z,7.30
2022-11-05T05:36:38.245Z,7.30
2022-11-05T05:39:06.864Z,7.30
2022-11-05T05:41:34.221Z,7.30
2022-11-05T05:44:01.203Z,7.30
2022-11-05T05:46:28.183Z,7.30
2022-11-05T05:48:55.246Z,7.40
2022-11-05T05:51:22.257Z,7.40
2022-11-05T05:53:49.408Z,7.40
2022-11-05T05:56:19.380Z,7.40
2022-11-05T05:58:46.886Z,7.40
2022-11-05T06:01:19.334Z,7.40
2022-11-05T06:03:48.164Z,7.40
2022-11-05T06:06:16.120Z,7.40
2022-11-05T06:08:43.173Z,7.40
2022-11-05T06:11:10.239Z,7.40
2022-11-05T06:13:37.514Z,7.40
2022-11-05T06:16:07.054Z,7.40
2022-11-05T06:18:35.514Z,7.40
2022-11-05T06:21:23.183Z,7.40
2022-11-05T06:23:50.220Z,7.40
2022-11-05T06:26:18.781Z,7.40
2022-11-05T06:28:46.735Z,7.40
2022-11-05T06:31:14.926Z,7.50
2022-11-05T06:33:42.276Z,7.40
2022-11-05T06:36:14.611Z,7.40
2022-11-05T06:38:45.228Z,7.40
2022-11-05T06:41:12.292Z,7.40
2022-11-05T06:43:39.738Z,7.40
2022-11-05T06:46:08.566Z,7.40
2022-11-05T06:48:35.774Z,7.40
2022-11-05T06:51:03.902Z,7.50
2022-11-05T06:53:31.671Z,7.40
2022-11-05T06:56:02.773Z,7.50
2022-11-05T06:58:30.984Z,7.40
2022-11-05T07:01:09.929Z,7.50
2022-11-05T07:03:38.740Z,7.40
2022-11-05T07:06:08.000Z,7.40
2022-11-05T07:08:39.493Z,7.30
2022-11-05T07:11:07.304Z,7.30
2022-11-05T07:13:34.331Z,7.30
2022-11-05T07:16:01.373Z,7.30
2022-11-05T07:18:28.393Z,7.30
2022-11-05T07:20:55.343Z,7.30
2022-11-05T07:23:22.303Z,7.30
2022-11-05T07:25:49.953Z,7.30
2022-11-05T07:28:16.960Z,7.30
2022-11-05T07:30:43.968Z,7.30
2022-11-05T07:33:11.292Z,7.30
2022-11-05T07:35:39.002Z,7.30
2022-11-05T07:38:06.366Z,7.40
2022-11-05T07:40:33.561Z,7.40
2022-11-05T07:43:01.919Z,7.40
2022-11-05T07:45:30.663Z,7.30
2022-11-05T07:48:00.604Z,7.40
2022-11-05T07:50:30.308Z,7.40
2022-11-05T07:53:02.702Z,7.50
2022-11-05T07:55:30.330Z,7.50
2022-11-05T07:57:57.586Z,7.50
2022-11-05T08:00:25.914Z,7.50
2022-11-05T08:03:21.646Z,7.60
2022-11-05T08:05:48.943Z,7.60
2022-11-05T08:08:19.044Z,7.60
2022-11-05T08:10:46.758Z,7.60
2022-11-05T08:13:14.621Z,7.60
2022-11-05T08:15:42.937Z,7.60
2022-11-05T08:18:15.253Z,7.60
2022-11-05T08:20:43.294Z,7.60
2022-11-05T08:23:10.927Z,7.70
2022-11-05T08:25:39.894Z,7.70
2022-11-05T08:28:08.910Z,7.70
2022-11-05T08:30:35.916Z,8.70
2022-11-05T08:33:08.560Z,7.70
2022-11-05T08:35:37.729Z,7.80
2022-11-05T08:38:07.801Z,7.80
2022-11-05T08:40:36.648Z,7.80
2022-11-05T08:43:06.743Z,7.80
2022-11-05T08:45:34.952Z,7.90
2022-11-05T08:48:04.539Z,7.90
2022-11-05T08:50:32.387Z,8.00
2022-11-05T08:52:59.494Z,8.00
2022-11-05T08:55:27.281Z,8.00
2022-11-05T08:57:57.414Z,8.10
2022-11-05T09:00:25.221Z,8.10
2022-11-05T09:02:52.336Z,8.10
2022-11-05T09:05:19.475Z,8.20
2022-11-05T09:07:47.597Z,8.20
2022-11-05T09:10:14.659Z,8.30
2022-11-05T09:12:41.758Z,8.30
2022-11-05T09:15:09.728Z,8.30
2022-11-05T09:17:36.904Z,8.40
2022-11-05T09:20:07.496Z,8.30
2022-11-05T09:22:36.909Z,8.30
2022-11-05T09:25:08.488Z,8.30
2022-11-05T09:27:38.203Z,8.30
2022-11-05T09:30:05.823Z,6.40
2022-11-05T09:32:33.808Z,8.30
2022-11-05T09:35:01.777Z,8.20
2022-11-05T09:37:29.657Z,8.40
2022-11-05T09:39:56.727Z,8.40
2022-11-05T09:42:29.422Z,8.40
2022-11-05T09:45:05.533Z,8.40
2022-11-05T09:47:40.883Z,8.40
2022-11-05T09:50:08.972Z,8.40
2022-11-05T09:52:36.050Z,8.50
2022-11-05T09:55:07.168Z,8.50
2022-11-05T09:57:45.695Z,8.50
2022-11-05T10:00:16.955Z,7.40
2022-11-05T10:02:56.486Z,8.60
2022-11-05T10:05:25.664Z,8.60
2022-11-05T10:08:04.507Z,8.60
2022-11-05T10:11:12.882Z,8.60
2022-11-05T10:13:48.783Z,8.70
2022-11-05T10:16:35.805Z,8.70
2022-11-05T10:19:25.253Z,8.70
2022-11-05T10:22:10.004Z,8.70
2022-11-05T10:24:38.063Z,8.80
2022-11-05T10:27:06.358Z,8.80
2022-11-05T10:29:34.710Z,8.80
2022-11-05T10:32:05.768Z,8.90
2022-11-05T10:34:36.612Z,9.00
2022-11-05T10:37:04.376Z,9.10
2022-11-05T10:39:34.099Z,9.10
2022-11-05T10:42:40.830Z,9.10
2022-11-05T10:45:40.624Z,9.20
2022-11-05T10:48:47.311Z,9.20
2022-11-05T10:51:14.568Z,9.10
2022-11-05T10:53:50.065Z,9.30
2022-11-05T10:56:48.494Z,9.30
2022-11-05T10:59:31.629Z,9.40
2022-11-05T11:02:22.053Z,9.40
2022-11-05T11:04:58.832Z,9.40
2022-11-05T11:07:33.708Z,9.00
2022-11-05T11:10:00.737Z,8.40
2022-11-05T11:12:40.674Z,9.30
2022-11-05T11:15:32.721Z,9.30
2022-11-05T11:18:25.224Z,9.40
2022-11-05T11:20:52.312Z,9.30
2022-11-05T11:23:19.344Z,9.30
2022-11-05T11:26:01.769Z,9.20
2022-11-05T11:28:59.083Z,9.20
2022-11-05T11:31:30.163Z,9.30
2022-11-05T11:34:04.640Z,9.30
2022-11-05T11:36:36.525Z,9.40
2022-11-05T11:39:06.160Z,9.40
2022-11-05T11:41:41.945Z,9.40
2022-11-05T11:44:21.111Z,9.50
2022-11-05T11:46:53.273Z,9.50
2022-11-05T11:49:59.989Z,9.60
2022-11-05T11:52:46.846Z,9.50
2022-11-05T11:55:33.737Z,9.50
2022-11-05T11:58:07.218Z,9.50
2022-11-05T12:00:41.934Z,9.50
2022-11-05T12:03:50.066Z,9.50
2022-11-05T12:06:59.678Z,9.50
2022-11-05T12:10:07.372Z,9.50
2022-11-05T12:13:01.670Z,8.00
2022-11-05T12:15:53.983Z,9.50
2022-11-05T12:19:00.651Z,9.60
2022-11-05T12:21:52.677Z,9.60
2022-11-05T12:25:00.129Z,9.70
2022-11-05T12:28:06.778Z,9.70
2022-11-05T12:30:38.112Z,9.70
2022-11-05T12:33:32.547Z,9.60
2022-11-05T12:36:39.217Z,9.70
2022-11-05T12:39:42.096Z,9.70
2022-11-05T12:42:27.062Z,9.80
2022-11-05T12:45:07.594Z,9.70
2022-11-05T12:48:14.259Z,9.60
2022-11-05T12:50:45.791Z,9.70
2022-11-05T12:53:52.461Z,9.60
2022-11-05T12:56:25.754Z,9.70
2022-11-05T12:59:18.588Z,9.60
2022-11-05T13:01:50.650Z,9.60
2022-11-05T13:04:53.933Z,9.60
2022-11-05T13:07:28.842Z,9.60
2022-11-05T13:10:05.467Z,9.70
2022-11-05T13:12:36.644Z,9.60
2022-11-05T13:15:10.834Z,8.70
2022-11-05T13:18:04.538Z,8.90
2022-11-05T13:20:37.675Z,9.70
2022-11-05T13:23:31.007Z,9.70
2022-11-05T13:26:07.241Z,9.70
2022-11-05T13:29:02.727Z,9.70
2022-11-05T13:31:35.578Z,9.70
2022-11-05T13:34:08.601Z,9.60
2022-11-05T13:37:08.235Z,9.50
2022-11-05T13:39:44.240Z,9.50
2022-11-05T13:42:50.975Z,9.50
2022-11-05T13:46:02.803Z,9.50
2022-11-05T13:49:12.158Z,9.50
2022-11-05T13:51:58.892Z,9.50
2022-11-05T13:55:05.551Z,9.50
2022-11-05T13:57:52.256Z,9.50
2022-11-05T14:00:38.984Z,9.40
2022-11-05T14:03:14.679Z,9.40
2022-11-05T14:05:43.257Z,9.50
2022-11-05T14:08:18.550Z,9.50
2022-11-05T14:11:05.162Z,9.40
2022-11-05T14:13:54.424Z,9.40
2022-11-05T14:16:24.967Z,9.40
2022-11-05T14:19:14.761Z,9.40
2022-11-05T14:21:54.614Z,9.40
2022-11-05T14:24:43.492Z,9.40
2022-11-05T14:27:50.664Z,9.40
2022-11-05T14:30:57.350Z,9.40
2022-11-05T14:33:44.215Z,9.40
2022-11-05T14:36:32.834Z,9.40
2022-11-05T14:39:13.760Z,9.50
2022-11-05T14:42:17.217Z,9.40
2022-11-05T14:45:26.516Z,10.10
2022-11-05T14:47:58.595Z,9.30
2022-11-05T14:50:34.777Z,9.20
2022-11-05T14:53:12.972Z,9.20
2022-11-05T14:55:43.057Z,9.10
2022-11-05T14:58:29.777Z,9.10
2022-11-05T15:01:01.901Z,9.00
2022-11-05T15:04:01.163Z,8.90
2022-11-05T15:06:36.747Z,8.90
2022-11-05T15:09:23.504Z,8.90
2022-11-05T15:12:30.195Z,8.90
2022-11-05T15:15:00.303Z,8.80
2022-11-05T15:17:33.324Z,8.70
2022-11-05T15:20:09.294Z,8.70
2022-11-05T15:22:40.596Z,8.60
2022-11-05T15:25:18.522Z,8.50
2022-11-05T15:28:08.008Z,8.50
2022-11-05T15:30:35.049Z,8.50
2022-11-05T15:33:22.151Z,8.50
2022-11-05T15:35:49.355Z,8.40
2022-11-05T15:38:29.458Z,8.40
2022-11-05T15:41:02.148Z,8.40
2022-11-05T15:43:29.573Z,8.30
2022-11-05T15:46:20.089Z,8.30
2022-11-05T15:48:49.980Z,8.20
2022-11-05T15:51:20.675Z,8.20
2022-11-05T15:54:34.630Z,8.20
2022-11-05T15:57:02.191Z,8.20
2022-11-05T15:59:30.674Z,8.20
2022-11-05T16:02:23.591Z,8.20
2022-11-05T16:04:51.356Z,8.10
2022-11-05T16:07:19.945Z,8.10
2022-11-05T16:09:57.964Z,8.00
2022-11-05T16:12:31.112Z,7.90
2022-11-05T16:15:22.989Z,8.00
2022-11-05T16:18:20.844Z,7.90
2022-11-05T16:21:00.819Z,7.80
2022-11-05T16:23:41.984Z,7.80
2022-11-05T16:29:41.100Z,7.70
2022-11-05T16:32:18.309Z,7.60
2022-11-05T16:34:49.898Z,7.50
2022-11-05T16:37:19.413Z,7.50
2022-11-05T16:39:46.434Z,7.50
2022-11-05T16:42:53.187Z,7.50
2022-11-05T16:45:24.282Z,7.50
2022-11-05T16:47:52.079Z,7.40
2022-11-05T16:50:42.137Z,7.40
2022-11-05T16:53:09.359Z,7.40
2022-11-05T16:55:56.168Z,7.40
2022-11-05T16:58:26.171Z,7.40
2022-11-05T17:01:00.988Z,7.40
2022-11-05T17:03:28.092Z,7.40
2022-11-05T17:05:55.211Z,7.40
2022-11-05T17:08:22.212Z,7.40
2022-11-05T17:10:49.376Z,7.40
2022-11-05T17:13:18.418Z,7.40
2022-11-05T17:15:49.602Z,7.50
2022-11-05T17:18:18.932Z,7.50
2022-11-05T17:20:52.100Z,7.50
2022-11-05T17:23:21.302Z,7.50
2022-11-05T17:25:54.448Z,7.50
2022-11-05T17:28:22.139Z,7.50
2022-11-05T17:30:53.282Z,7.40
2022-11-05T17:33:21.755Z,7.50
2022-11-05T17:35:49.249Z,7.40
2022-11-05T17:38:16.431Z,7.40
2022-11-05T17:40:43.577Z,7.40
2022-11-05T17:43:11.002Z,7.40
2022-11-05T17:45:43.936Z,7.40
2022-11-05T17:48:11.565Z,7.40
2022-11-05T17:50:42.417Z,7.40
2022-11-05T17:53:10.812Z,7.40
2022-11-05T17:55:40.137Z,7.30
2022-11-05T17:58:07.203Z,5.40
2022-11-05T18:00:35.032Z,7.40
2022-11-05T18:03:02.310Z,7.40
2022-11-05T18:05:31.092Z,7.40
2022-11-05T18:07:58.522Z,7.40
2022-11-05T18:10:25.679Z,7.30
2022-11-05T18:12:52.690Z,7.20
2022-11-05T18:15:19.893Z,7.30
2022-11-05T18:17:47.394Z,7.20
2022-11-05T18:20:19.260Z,7.30
2022-11-05T18:22:49.029Z,7.20
2022-11-05T18:25:16.288Z,7.30
2022-11-05T18:27:44.778Z,7.30
2022-11-05T18:30:15.502Z,7.20
2022-11-05T18:32:44.439Z,7.20
2022-11-05T18:35:15.814Z,7.20
2022-11-05T18:37:43.461Z,7.20
2022-11-05T18:40:11.304Z,7.10
2022-11-05T18:42:38.600Z,7.10
2022-11-05T18:45:07.379Z,7.10
2022-11-05T18:47:34.632Z,7.10
2022-11-05T18:50:01.973Z,7.00
2022-11-05T18:52:31.588Z,7.00
2022-11-05T18:54:59.499Z,7.00
2022-11-05T18:57:27.296Z,7.00
2022-11-05T18:59:54.469Z,6.90
2022-11-05T19:02:21.617Z,6.90
2022-11-05T19:05:07.069Z,6.90
2022-11-05T19:07:37.882Z,6.80
2022-11-05T19:10:05.462Z,6.80
2022-11-05T19:12:32.731Z,5.90
2022-11-05T19:15:02.874Z,6.80
2022-11-05T19:17:31.486Z,6.70
2022-11-05T19:19:58.497Z,6.70
2022-11-05T19:22:26.173Z,6.70
2022-11-05T19:24:53.479Z,6.70
2022-11-05T19:27:20.510Z,6.60
2022-11-05T19:29:47.881Z,6.60
2022-11-05T19:32:15.613Z,6.60
2022-11-05T19:34:46.462Z,6.60
2022-11-05T19:37:13.554Z,6.50
2022-11-05T19:39:42.616Z,6.50
2022-11-05T19:42:10.152Z,4.60
2022-11-05T19:44:37.227Z,6.50
2022-11-05T19:47:04.399Z,6.50
2022-11-05T19:49:31.386Z,6.50
2022-11-05T19:51:58.438Z,6.40
2022-11-05T19:54:25.404Z,6.40
2022-11-05T19:56:52.560Z,6.30
2022-11-05T19:59:19.512Z,6.40
2022-11-05T20:01:46.786Z,6.40
2022-11-05T20:04:14.036Z,6.40
2022-11-05T20:06:41.202Z,6.40
2022-11-05T20:09:27.437Z,6.40
2022-11-05T20:11:56.721Z,6.40
2022-11-05T20:14:25.315Z,6.40
2022-11-05T20:16:52.862Z,6.30
2022-11-05T20:19:21.809Z,6.30
2022-11-05T20:21:49.030Z,6.30
2022-11-05T20:24:23.775Z,6.20
2022-11-05T20:26:54.267Z,6.20
2022-11-05T20:29:21.808Z,6.10
2022-11-05T20:31:48.994Z,6.10
2022-11-05T20:34:16.004Z,6.00
2022-11-05T20:36:43.259Z,6.00
2022-11-05T20:39:12.613Z,6.00
2022-11-05T20:41:40.170Z,6.00
2022-11-05T20:44:10.002Z,5.90
2022-11-05T20:46:37.075Z,5.90
2022-11-05T20:49:04.113Z,5.90
2022-11-05T20:51:31.157Z,5.90
2022-11-05T20:54:00.365Z,5.90
2022-11-05T20:56:29.775Z,5.90
2022-11-05T20:58:58.564Z,5.90
2022-11-05T21:01:26.912Z,5.90
2022-11-05T21:03:54.235Z,5.80
2022-11-05T21:06:21.448Z,5.80
2022-11-05T21:08:50.162Z,5.60
2022-11-05T21:11:18.406Z,5.60
2022-11-05T21:13:45.872Z,7.60
2022-11-05T21:16:18.056Z,5.60
2022-11-05T21:18:46.175Z,5.60
2022-11-05T21:21:17.296Z,5.60
2022-11-05T21:23:44.517Z,5.70
2022-11-05T21:26:14.431Z,5.60
2022-11-05T21:28:42.259Z,5.70
2022-11-05T21:31:09.791Z,5.60
2022-11-05T21:33:37.688Z,5.60
2022-11-05T21:36:09.369Z,5.60
2022-11-05T21:38:37.319Z,5.30
2022-11-05T21:41:07.867Z,5.60
2022-11-05T21:43:35.999Z,5.50
2022-11-05T21:46:04.670Z,5.50
2022-11-05T21:48:32.379Z,5.50
2022-11-05T21:51:19.451Z,5.50
2022-11-05T21:54:07.343Z,5.50
2022-11-05T21:56:54.699Z,4.10
2022-11-05T21:59:43.869Z,5.40
2022-11-05T22:02:12.761Z,4.50
2022-11-05T22:04:55.470Z,5.40
2022-11-05T22:07:25.080Z,5.40
2022-11-05T22:09:52.619Z,5.40
2022-11-05T22:12:19.830Z,5.30
2022-11-05T22:14:47.038Z,5.30
2022-11-05T22:17:14.815Z,5.40
2022-11-05T22:19:42.633Z,5.30
2022-11-05T22:22:10.070Z,5.30
2022-11-05T22:24:40.068Z,5.30
2022-11-05T22:27:11.377Z,5.40
2022-11-05T22:29:38.545Z,5.30
2022-11-05T22:32:06.713Z,5.30
2022-11-05T22:34:36.784Z,5.30
2022-11-05T22:37:04.778Z,5.30
2022-11-05T22:39:32.168Z,5.10
2022-11-05T22:42:04.207Z,5.10
2022-11-05T22:44:38.220Z,5.00
2022-11-05T22:47:07.263Z,4.90
2022-11-05T22:49:35.260Z,4.80
2022-11-05T22:52:02.296Z,4.70
2022-11-05T22:54:31.028Z,4.70
2022-11-05T22:57:01.993Z,4.70
2022-11-05T22:59:29.069Z,4.70
2022-11-05T23:01:56.296Z,4.70
2022-11-05T23:04:23.336Z,4.70
2022-11-05T23:07:10.261Z,4.60
2022-11-05T23:09:58.432Z,4.60
2022-11-05T23:12:29.846Z,4.60
2022-11-05T23:14:58.864Z,4.60
2022-11-05T23:17:46.506Z,4.60
2022-11-05T23:20:38.921Z,4.50
2022-11-05T23:23:30.992Z,4.50
2022-11-05T23:25:59.212Z,4.50
2022-11-05T23:28:26.341Z,4.50
2022-11-05T23:31:13.222Z,4.50
2022-11-05T23:33:40.193Z,4.40
2022-11-05T23:36:32.070Z,4.40
2022-11-05T23:38:59.092Z,4.40
2022-11-05T23:41:45.929Z,4.40
2022-11-05T23:44:34.101Z,4.40
2022-11-05T23:47:20.958Z,4.40
2022-11-05T23:49:47.905Z,4.40
2022-11-05T23:52:14.950Z,4.40
2022-11-05T23:54:42.173Z,4.40
2022-11-05T23:57:09.131Z,4.30
2022-11-05T23:59:36.097Z,4.30
